Time;durP1;ratioP1;P1;durP2;ratioP2;P2;SDS_P1;SDS_P2;PMS_P1;PMS_P2;Temp;Humidity;BMP_temperature;BMP_pressure;BME280_temperature;BME280_humidity;BME280_pressure;Samples;Min_cycle;Max_cycle;Signal;HPM_P1;HPM_P2
2021/12/13 00:00:29;;;;;;;46.58;42.33;;;;;;;;;;5007058;28;20034;-55
2021/12/13 00:03:07;;;;;;;47.88;43.58;;;;;;;;;;5006870;28;20033;-54
2021/12/13 00:05:40;;;;;;;46.08;41.90;;;;;;;;;;5006831;28;20536;-57
2021/12/13 00:08:07;;;;;;;52.03;47.17;;;;;;;;;;5005428;28;20033;-55
2021/12/13 00:10:53;;;;;;;50.80;46.13;;;;;;;;;;5006981;28;20203;-54
2021/12/13 00:13:20;;;;;;;51.00;46.33;;;;;;;;;;5006356;28;20511;-55
2021/12/13 00:15:50;;;;;;;52.53;47.55;;;;;;;;;;5007085;28;20048;-52
2021/12/13 00:18:17;;;;;;;47.08;42.92;;;;;;;;;;5005508;28;20041;-56
2021/12/13 00:20:44;;;;;;;51.70;46.85;;;;;;;;;;5006288;28;20029;-53
2021/12/13 00:23:27;;;;;;;51.90;47.05;;;;;;;;;;5002047;28;20029;-56
2021/12/13 00:25:53;;;;;;;52.30;47.40;;;;;;;;;;4996932;28;20036;-54
2021/12/13 00:28:18;;;;;;;61.50;55.38;;;;;;;;;;5006412;28;20053;-54
2021/12/13 00:31:02;;;;;;;55.92;50.47;;;;;;;;;;5006459;28;20480;-56
2021/12/13 00:33:32;;;;;;;52.67;47.83;;;;;;;;;;5006575;28;20029;-56
2021/12/13 00:36:17;;;;;;;58.20;52.60;;;;;;;;;;5006398;28;20112;-57
2021/12/13 00:38:44;;;;;;;61.92;55.72;;;;;;;;;;5006185;28;20132;-54
2021/12/13 00:41:11;;;;;;;48.90;44.35;;;;;;;;;;5006210;28;20026;-57
2021/12/13 00:43:38;;;;;;;25.02;23.00;;;;;;;;;;5006007;28;20032;-55
2021/12/13 00:46:04;;;;;;;33.53;30.73;;;;;;;;;;5021452;28;20112;-55
2021/12/13 00:48:30;;;;;;;28.33;26.13;;;;;;;;;;5006255;28;20459;-56
2021/12/13 00:51:00;;;;;;;32.95;30.30;;;;;;;;;;5005961;28;20037;-55
2021/12/13 00:53:26;;;;;;;31.30;28.80;;;;;;;;;;5004691;28;20768;-57
2021/12/13 00:55:51;;;;;;;17.95;16.55;;;;;;;;;;5006022;28;20049;-55
2021/12/13 00:58:18;;;;;;;25.40;23.47;;;;;;;;;;5004078;28;20114;-54
2021/12/13 01:00:54;;;;;;;29.33;27.02;;;;;;;;;;5005493;28;20037;-54
2021/12/13 01:03:20;;;;;;;29.05;26.75;;;;;;;;;;5005699;28;20117;-56
2021/12/13 01:05:56;;;;;;;47.17;42.97;;;;;;;;;;5005697;28;20426;-53
2021/12/13 01:08:31;;;;;;;67.05;60.00;;;;;;;;;;5006014;28;20029;-57
2021/12/13 01:11:15;;;;;;;69.15;61.80;;;;;;;;;;5005607;28;20034;-56
2021/12/13 01:13:52;;;;;;;64.88;58.33;;;;;;;;;;5005629;28;20117;-53
2021/12/13 01:16:43;;;;;;;67.03;60.17;;;;;;;;;;5005660;28;20455;-56
2021/12/13 01:21:55;;;;;;;59.25;53.53;;;;;;;;;;5005906;28;20069;-55
2021/12/13 01:24:41;;;;;;;59.25;53.47;;;;;;;;;;5005408;28;20112;-56
2021/12/13 01:27:06;;;;;;;58.83;53.13;;;;;;;;;;5005305;28;20057;-56
2021/12/13 01:29:31;;;;;;;70.70;63.23;;;;;;;;;;5005172;28;20060;-57
2021/12/13 01:31:58;;;;;;;69.90;62.47;;;;;;;;;;5004088;28;20743;-56
2021/12/13 01:34:24;;;;;;;68.97;61.65;;;;;;;;;;5005599;28;20363;-56
2021/12/13 01:37:00;;;;;;;60.28;54.22;;;;;;;;;;5005474;28;20100;-57
2021/12/13 01:39:26;;;;;;;67.57;60.40;;;;;;;;;;5005054;28;20033;-57
2021/12/13 01:41:52;;;;;;;65.15;58.50;;;;;;;;;;5003811;28;20428;-56
2021/12/13 01:44:19;;;;;;;62.78;56.45;;;;;;;;;;5004742;28;20033;-55
2021/12/13 01:46:46;;;;;;;61.65;55.53;;;;;;;;;;5004957;28;20048;-55
2021/12/13 01:49:11;;;;;;;61.30;55.22;;;;;;;;;;5005022;28;20010;-56
2021/12/13 01:51:37;;;;;;;65.57;59.03;;;;;;;;;;5005102;28;20479;-56
2021/12/13 01:54:06;;;;;;;68.05;61.03;;;;;;;;;;5004665;28;20049;-55
2021/12/13 01:59:04;;;;;;;53.60;48.35;;;;;;;;;;5004987;28;20410;-55
2021/12/13 02:01:29;;;;;;;;;;;;;;;;;;5005311;28;20053;-56
2021/12/13 02:03:56;;;;;;;56.28;50.95;;;;;;;;;;5004756;28;19952;-55
2021/12/13 02:06:26;;;;;;;53.08;48.20;;;;;;;;;;5004949;28;20017;-57
2021/12/13 02:08:53;;;;;;;54.30;49.20;;;;;;;;;;5004472;28;20569;-56
2021/12/13 02:11:19;;;;;;;54.80;49.58;;;;;;;;;;5003815;28;20420;-54
2021/12/13 02:14:03;;;;;;;68.38;61.15;;;;;;;;;;5004593;28;20048;-57
2021/12/13 02:19:15;;;;;;;62.65;56.30;;;;;;;;;;5003306;28;20113;-56
2021/12/13 02:21:40;;;;;;;75.67;67.37;;;;;;;;;;5003346;28;20536;-57
2021/12/13 02:24:09;;;;;;;76.97;68.15;;;;;;;;;;4999698;28;20564;-57
2021/12/13 02:26:47;;;;;;;80.93;70.75;;;;;;;;;;4999805;28;20026;-54
2021/12/13 02:29:17;;;;;;;73.68;65.72;;;;;;;;;;5004151;28;20057;-53
2021/12/13 02:31:42;;;;;;;78.93;70.18;;;;;;;;;;5004421;28;20048;-54
2021/12/13 02:34:09;;;;;;;79.32;70.47;;;;;;;;;;5004228;28;20026;-54
2021/12/13 02:36:35;;;;;;;86.40;73.18;;;;;;;;;;5004291;28;20103;-56
2021/12/13 02:39:05;;;;;;;67.68;60.63;;;;;;;;;;5004340;28;20527;-55
2021/12/13 02:41:30;;;;;;;81.40;71.07;;;;;;;;;;5004318;28;20476;-57
2021/12/13 02:43:58;;;;;;;82.25;71.55;;;;;;;;;;5004265;28;20040;-54
2021/12/13 02:46:23;;;;;;;76.43;67.78;;;;;;;;;;5005298;28;20041;-52
2021/12/13 02:48:50;;;;;;;94.20;77.57;;;;;;;;;;5005503;28;20440;-54
2021/12/13 02:51:15;;;;;;;93.43;77.53;;;;;;;;;;5006111;28;20040;-56
2021/12/13 02:53:43;;;;;;;101.23;81.30;;;;;;;;;;5006654;28;20501;-54
2021/12/13 02:56:08;;;;;;;81.78;71.18;;;;;;;;;;5004992;28;20507;-56
2021/12/13 02:58:34;;;;;;;103.50;78.95;;;;;;;;;;5002443;28;20025;-53
2021/12/13 03:01:05;;;;;;;105.07;83.57;;;;;;;;;;5003795;28;20519;-53
2021/12/13 03:03:31;;;;;;;101.13;81.57;;;;;;;;;;5003879;28;20026;-55
2021/12/13 03:05:57;;;;;;;80.32;70.00;;;;;;;;;;5004017;28;20034;-53
2021/12/13 03:08:30;;;;;;;89.72;76.45;;;;;;;;;;5004024;28;20461;-53
2021/12/13 03:10:56;;;;;;;99.15;80.47;;;;;;;;;;5003988;28;20030;-54
2021/12/13 03:13:22;;;;;;;106.30;83.55;;;;;;;;;;5003914;28;20026;-54
2021/12/13 03:15:49;;;;;;;84.90;72.63;;;;;;;;;;5003691;28;20527;-54
2021/12/13 03:18:17;;;;;;;81.35;71.07;;;;;;;;;;5002487;28;20316;-55
2021/12/13 03:21:01;;;;;;;94.88;78.18;;;;;;;;;;5004049;28;20507;-55
2021/12/13 03:23:26;;;;;;;93.72;78.45;;;;;;;;;;5006923;28;20025;-55
2021/12/13 03:26:08;;;;;;;86.93;74.10;;;;;;;;;;5007348;28;20037;-54
2021/12/13 03:28:34;;;;;;;95.03;78.90;;;;;;;;;;5006056;28;20655;-55
2021/12/13 03:31:07;;;;;;;85.43;72.78;;;;;;;;;;5007384;28;20032;-56
2021/12/13 03:33:32;;;;;;;82.68;71.38;;;;;;;;;;5007258;28;20079;-55
2021/12/13 03:35:58;;;;;;;94.30;78.00;;;;;;;;;;5007459;28;20041;-58
2021/12/13 03:38:28;;;;;;;95.82;78.57;;;;;;;;;;5007507;28;20069;-55
2021/12/13 03:40:56;;;;;;;88.18;74.38;;;;;;;;;;5007438;28;20820;-55
2021/12/13 03:43:41;;;;;;;87.38;73.55;;;;;;;;;;5006047;28;20026;-57
2021/12/13 03:46:07;;;;;;;92.30;76.57;;;;;;;;;;5007365;28;20073;-53
2021/12/13 03:48:32;;;;;;;89.13;75.10;;;;;;;;;;5007237;28;20029;-57
2021/12/13 03:50:58;;;;;;;105.97;84.47;;;;;;;;;;5007147;28;20433;-53
2021/12/13 03:53:25;;;;;;;107.32;83.88;;;;;;;;;;5006943;28;20041;-53
2021/12/13 03:55:52;;;;;;;86.47;73.72;;;;;;;;;;5007443;28;20048;-54
2021/12/13 03:58:18;;;;;;;93.45;76.70;;;;;;;;;;5007187;28;20431;-55
2021/12/13 04:00:46;;;;;;;98.60;80.25;;;;;;;;;;5007254;28;20104;-55
2021/12/13 04:03:13;;;;;;;96.15;79.32;;;;;;;;;;5006626;28;20047;-54
2021/12/13 04:05:38;;;;;;;85.82;73.60;;;;;;;;;;5007063;28;20775;-53
2021/12/13 04:08:04;;;;;;;86.18;72.88;;;;;;;;;;5006807;28;20033;-57
2021/12/13 04:10:34;;;;;;;106.07;83.63;;;;;;;;;;5006796;28;20061;-57
2021/12/13 04:13:00;;;;;;;91.28;76.18;;;;;;;;;;5006399;28;20029;-58
2021/12/13 04:15:31;;;;;;;96.78;78.53;;;;;;;;;;5006827;28;20080;-57
2021/12/13 04:20:24;;;;;;;116.43;88.03;;;;;;;;;;5006334;28;20329;-55
2021/12/13 04:22:51;;;;;;;96.28;78.97;;;;;;;;;;5005121;28;20025;-55
2021/12/13 04:25:17;;;;;;;126.07;91.95;;;;;;;;;;4902020;28;20041;-53
2021/12/13 04:28:15;;;;;;;116.40;87.80;;;;;;;;;;4933890;28;20077;-53
2021/12/13 04:30:49;;;;;;;142.25;98.97;;;;;;;;;;4997842;28;20104;-56
2021/12/13 04:33:20;;;;;;;152.70;102.78;;;;;;;;;;5002726;28;20141;-55
2021/12/13 04:35:49;;;;;;;160.80;106.32;;;;;;;;;;5005529;28;20026;-54
2021/12/13 04:38:17;;;;;;;146.68;101.57;;;;;;;;;;5005416;28;20037;-56
2021/12/13 04:40:42;;;;;;;161.98;107.50;;;;;;;;;;4989644;28;20030;-54
2021/12/13 04:43:12;;;;;;;151.57;101.73;;;;;;;;;;5004838;28;20447;-56
2021/12/13 04:45:42;;;;;;;132.13;94.25;;;;;;;;;;5005672;28;20256;-53
2021/12/13 04:48:07;;;;;;;123.38;90.90;;;;;;;;;;5005614;28;20030;-56
2021/12/13 04:50:35;;;;;;;106.50;82.87;;;;;;;;;;5005735;28;20025;-57
2021/12/13 04:53:00;;;;;;;80.25;69.88;;;;;;;;;;5004719;28;20268;-52
2021/12/13 04:55:33;;;;;;;75.45;66.93;;;;;;;;;;5005966;28;20037;-55
2021/12/13 04:57:59;;;;;;;82.13;71.20;;;;;;;;;;5005733;28;20042;-55
2021/12/13 05:00:25;;;;;;;89.07;73.28;;;;;;;;;;4995249;28;20026;-55
2021/12/13 05:02:52;;;;;;;80.20;69.57;;;;;;;;;;5001642;28;20022;-54
2021/12/13 05:05:18;;;;;;;105.53;83.30;;;;;;;;;;5004740;28;20495;-53
2021/12/13 05:07:44;;;;;;;114.53;86.50;;;;;;;;;;5005209;28;20026;-56
2021/12/13 05:10:10;;;;;;;129.18;92.35;;;;;;;;;;5004471;28;20013;-56
2021/12/13 05:12:35;;;;;;;124.88;90.82;;;;;;;;;;5000004;28;20041;-55
2021/12/13 05:15:01;;;;;;;118.47;88.23;;;;;;;;;;4993646;28;20029;-52
2021/12/13 05:17:29;;;;;;;156.32;104.25;;;;;;;;;;5004734;28;20297;-52
2021/12/13 05:19:59;;;;;;;145.60;99.90;;;;;;;;;;5004192;28;20034;-53
2021/12/13 05:22:24;;;;;;;141.40;98.13;;;;;;;;;;5005593;28;20034;-55
2021/12/13 05:25:07;;;;;;;130.17;92.90;;;;;;;;;;5005393;28;20030;-53
2021/12/13 05:27:33;;;;;;;137.48;95.80;;;;;;;;;;5005335;28;20472;-56
2021/12/13 05:30:18;;;;;;;130.23;93.20;;;;;;;;;;5005397;28;20053;-55
2021/12/13 05:32:45;;;;;;;124.88;90.40;;;;;;;;;;5005634;28;20029;-57
2021/12/13 05:35:19;;;;;;;117.70;86.50;;;;;;;;;;5000194;28;20041;-56
2021/12/13 05:37:48;;;;;;;69.88;62.38;;;;;;;;;;5004964;28;20037;-53
2021/12/13 05:40:15;;;;;;;73.63;65.53;;;;;;;;;;5005163;28;20080;-54
2021/12/13 05:42:49;;;;;;;88.93;73.97;;;;;;;;;;5005180;28;20030;-57
2021/12/13 05:45:16;;;;;;;82.93;70.78;;;;;;;;;;5004024;28;20264;-54
2021/12/13 05:48:08;;;;;;;83.40;70.32;;;;;;;;;;5004964;28;20417;-56
2021/12/13 05:50:34;;;;;;;82.70;70.72;;;;;;;;;;4992808;28;20069;-57
2021/12/13 05:53:05;;;;;;;81.93;70.15;;;;;;;;;;4987636;28;20390;-55
2021/12/13 05:55:31;;;;;;;90.47;74.25;;;;;;;;;;5004823;28;20056;-56
2021/12/13 05:57:56;;;;;;;86.83;72.53;;;;;;;;;;5003410;28;20552;-54
2021/12/13 06:00:21;;;;;;;89.83;74.93;;;;;;;;;;5004777;28;20269;-60
2021/12/13 06:02:58;;;;;;;94.80;76.82;;;;;;;;;;5004805;28;20281;-59
2021/12/13 06:05:43;;;;;;;76.07;66.40;;;;;;;;;;4989377;28;20104;-57
2021/12/13 06:08:09;;;;;;;97.28;77.40;;;;;;;;;;5003146;28;20535;-57
2021/12/13 06:10:39;;;;;;;86.22;72.13;;;;;;;;;;5004811;28;20026;-58
2021/12/13 06:13:06;;;;;;;89.43;74.07;;;;;;;;;;5004355;28;20424;-57
2021/12/13 06:15:32;;;;;;;92.13;73.80;;;;;;;;;;5002951;28;20264;-56
2021/12/13 06:18:04;;;;;;;85.90;71.93;;;;;;;;;;4993480;28;20049;-57
2021/12/13 06:20:47;;;;;;;87.32;72.28;;;;;;;;;;5004473;28;20033;-60
2021/12/13 06:23:17;;;;;;;91.90;72.45;;;;;;;;;;5000478;28;20412;-53
2021/12/13 06:25:43;;;;;;;94.53;75.25;;;;;;;;;;5003732;28;20034;-60
2021/12/13 06:28:15;;;;;;;95.65;76.38;;;;;;;;;;5003590;28;20558;-58
2021/12/13 06:30:40;;;;;;;118.30;87.25;;;;;;;;;;5003734;28;20057;-53
2021/12/13 06:33:07;;;;;;;89.33;72.63;;;;;;;;;;5003418;28;20456;-59
2021/12/13 06:35:50;;;;;;;111.97;83.80;;;;;;;;;;4998670;28;20052;-53
2021/12/13 06:38:18;;;;;;;99.90;78.60;;;;;;;;;;5003732;28;20116;-55
2021/12/13 06:41:07;;;;;;;116.60;85.85;;;;;;;;;;4992786;28;20367;-53
2021/12/13 06:43:32;;;;;;;67.35;60.10;;;;;;;;;;5000336;28;20524;-56
2021/12/13 06:45:58;;;;;;;70.23;62.53;;;;;;;;;;5004466;28;20061;-55
2021/12/13 06:48:42;;;;;;;66.38;59.20;;;;;;;;;;5004472;28;20113;-58
2021/12/13 06:51:08;;;;;;;80.55;68.75;;;;;;;;;;5004355;28;20022;-56
2021/12/13 06:53:33;;;;;;;63.75;57.10;;;;;;;;;;5004063;28;20103;-58
2021/12/13 06:56:07;;;;;;;86.20;69.00;;;;;;;;;;5004165;28;20094;-60
2021/12/13 06:58:32;;;;;;;81.50;69.07;;;;;;;;;;5006351;28;20349;-54
2021/12/13 07:01:03;;;;;;;88.07;73.13;;;;;;;;;;4995216;28;20500;-61
2021/12/13 07:03:32;;;;;;;88.28;72.35;;;;;;;;;;5007273;28;20048;-55
2021/12/13 07:05:58;;;;;;;90.68;72.68;;;;;;;;;;5006914;28;20558;-54
2021/12/13 07:08:24;;;;;;;102.50;78.93;;;;;;;;;;5006102;28;20025;-58
2021/12/13 07:10:52;;;;;;;107.15;77.57;;;;;;;;;;5007161;28;20022;-52
2021/12/13 07:13:20;;;;;;;120.82;85.78;;;;;;;;;;5000500;28;20564;-55
2021/12/13 07:15:46;;;;;;;123.28;86.85;;;;;;;;;;5027377;28;20526;-60
2021/12/13 07:18:15;;;;;;;129.55;88.68;;;;;;;;;;5009700;28;20048;-56
2021/12/13 07:20:42;;;;;;;113.88;81.68;;;;;;;;;;5007455;28;20492;-57
2021/12/13 07:23:08;;;;;;;101.57;76.05;;;;;;;;;;4995618;28;20030;-54
2021/12/13 07:25:34;;;;;;;110.90;79.63;;;;;;;;;;4989957;28;20498;-54
2021/12/13 07:27:59;;;;;;;94.47;70.28;;;;;;;;;;4989119;28;20097;-54
2021/12/13 07:30:25;;;;;;;101.50;75.37;;;;;;;;;;4988119;28;20450;-57
2021/12/13 07:32:57;;;;;;;97.82;73.40;;;;;;;;;;4987540;28;20269;-54
2021/12/13 07:35:28;;;;;;;96.28;72.32;;;;;;;;;;4990566;28;20028;-56
2021/12/13 07:37:55;;;;;;;100.05;74.07;;;;;;;;;;5003388;28;20042;-59
2021/12/13 07:40:20;;;;;;;92.60;70.15;;;;;;;;;;5000418;28;20069;-58
2021/12/13 07:42:54;;;;;;;92.60;69.83;;;;;;;;;;4987749;28;20022;-58
2021/12/13 07:45:34;;;;;;;88.35;68.45;;;;;;;;;;5003887;28;20794;-61
2021/12/13 07:48:03;;;;;;;108.90;78.60;;;;;;;;;;5000339;28;20034;-59
2021/12/13 07:50:29;;;;;;;94.80;71.60;;;;;;;;;;4990760;28;20056;-53
2021/12/13 07:52:56;;;;;;;88.63;68.53;;;;;;;;;;4999910;28;20030;-57
2021/12/13 07:55:28;;;;;;;109.75;76.65;;;;;;;;;;5000525;28;20030;-58
2021/12/13 07:57:54;;;;;;;111.15;81.85;;;;;;;;;;5005314;28;20034;-57
2021/12/13 08:00:23;;;;;;;107.22;80.45;;;;;;;;;;4994658;28;20385;-58
2021/12/13 08:02:56;;;;;;;134.70;91.07;;;;;;;;;;5004352;28;20029;-57
2021/12/13 08:05:22;;;;;;;121.38;85.32;;;;;;;;;;5005856;28;20089;-60
2021/12/13 08:07:52;;;;;;;78.90;65.25;;;;;;;;;;4993624;28;20045;-58
2021/12/13 08:10:18;;;;;;;;;;;;;;;;;;5003528;28;20032;-57
2021/12/13 08:12:46;;;;;;;95.85;72.55;;;;;;;;;;4989019;28;20008;-54
2021/12/13 08:15:18;;;;;;;81.35;64.28;;;;;;;;;;4990968;28;20026;-59
2021/12/13 08:17:44;;;;;;;73.43;61.30;;;;;;;;;;5006563;28;20036;-56
2021/12/13 08:20:10;;;;;;;81.80;65.53;;;;;;;;;;5006629;28;20108;-58
2021/12/13 08:22:36;;;;;;;82.13;63.70;;;;;;;;;;4993255;28;20114;-58
2021/12/13 08:25:06;;;;;;;73.30;58.75;;;;;;;;;;4992556;28;20036;-57
2021/12/13 08:27:36;;;;;;;73.97;61.33;;;;;;;;;;4992782;28;20053;-58
2021/12/13 08:30:03;;;;;;;69.85;57.50;;;;;;;;;;4995744;28;20034;-55
2021/12/13 08:32:28;;;;;;;66.38;53.28;;;;;;;;;;4988481;28;20109;-58
2021/12/13 08:34:56;;;;;;;58.83;51.93;;;;;;;;;;4987110;28;20117;-53
2021/12/13 08:37:25;;;;;;;64.95;54.58;;;;;;;;;;4989792;28;20038;-53
2021/12/13 08:39:57;;;;;;;56.47;50.50;;;;;;;;;;4988419;28;20026;-57
2021/12/13 08:42:23;;;;;;;55.20;49.38;;;;;;;;;;4996954;28;20038;-57
2021/12/13 08:44:53;;;;;;;50.05;44.92;;;;;;;;;;5006312;28;20022;-55
2021/12/13 08:47:19;;;;;;;47.22;42.15;;;;;;;;;;4991463;28;20057;-56
2021/12/13 08:49:47;;;;;;;49.97;44.88;;;;;;;;;;4989408;28;20038;-53
2021/12/13 08:52:12;;;;;;;55.08;49.22;;;;;;;;;;4986402;28;20033;-53
2021/12/13 08:54:47;;;;;;;60.50;51.00;;;;;;;;;;4994995;28;20042;-58
2021/12/13 08:57:27;;;;;;;62.00;54.50;;;;;;;;;;4999871;28;20033;-55
2021/12/13 08:59:52;;;;;;;56.83;50.15;;;;;;;;;;5001867;28;20018;-57
2021/12/13 09:02:18;;;;;;;59.40;52.88;;;;;;;;;;4988854;28;20500;-58
2021/12/13 09:04:52;;;;;;;62.17;55.20;;;;;;;;;;5000945;28;20520;-57
2021/12/13 09:07:18;;;;;;;70.95;59.78;;;;;;;;;;5008851;28;20809;-56
2021/12/13 09:09:44;;;;;;;63.83;56.83;;;;;;;;;;5008292;28;20037;-56
2021/12/13 09:12:10;;;;;;;76.15;63.80;;;;;;;;;;4989745;28;21210;-53
2021/12/13 09:14:39;;;;;;;79.18;66.45;;;;;;;;;;4990069;28;20030;-56
2021/12/13 09:17:26;;;;;;;66.72;59.38;;;;;;;;;;4991031;28;20046;-57
2021/12/13 09:20:04;;;;;;;74.82;62.55;;;;;;;;;;5000507;28;20030;-58
2021/12/13 09:22:35;;;;;;;86.22;71.13;;;;;;;;;;4993132;28;20022;-59
2021/12/13 09:25:03;;;;;;;73.45;63.33;;;;;;;;;;4987390;28;20038;-58
2021/12/13 09:27:35;;;;;;;81.78;68.53;;;;;;;;;;4987082;28;20079;-55
2021/12/13 09:30:12;;;;;;;87.68;71.25;;;;;;;;;;4986773;28;20037;-56
2021/12/13 09:32:39;;;;;;;87.18;71.88;;;;;;;;;;4988234;28;20509;-59
2021/12/13 09:35:22;;;;;;;93.50;74.22;;;;;;;;;;4989298;28;20453;-53
2021/12/13 09:37:47;;;;;;;99.22;77.88;;;;;;;;;;4989581;28;20039;-55
2021/12/13 09:40:13;;;;;;;89.20;74.05;;;;;;;;;;4985774;28;20404;-56
2021/12/13 09:42:48;;;;;;;96.80;76.10;;;;;;;;;;4987852;28;20093;-57
2021/12/13 09:45:14;;;;;;;98.28;77.40;;;;;;;;;;5003817;28;20033;-55
2021/12/13 09:47:40;;;;;;;102.65;79.03;;;;;;;;;;5004207;28;20489;-58
2021/12/13 09:50:19;;;;;;;119.75;87.47;;;;;;;;;;4993027;28;20026;-54
2021/12/13 09:52:50;;;;;;;135.05;91.90;;;;;;;;;;4995418;28;20389;-57
2021/12/13 09:55:19;;;;;;;117.55;87.70;;;;;;;;;;5003766;28;20045;-58
2021/12/13 09:58:03;;;;;;;112.68;84.85;;;;;;;;;;4996297;28;20033;-50
2021/12/13 10:00:35;;;;;;;91.53;74.82;;;;;;;;;;5005649;28;20057;-53
2021/12/13 10:03:02;;;;;;;88.15;71.78;;;;;;;;;;5005881;28;20033;-58
2021/12/13 10:05:29;;;;;;;81.93;68.25;;;;;;;;;;5004560;28;20022;-58
2021/12/13 10:07:56;;;;;;;70.90;63.20;;;;;;;;;;5003992;28;20547;-57
2021/12/13 10:10:23;;;;;;;74.97;64.43;;;;;;;;;;5005977;28;20025;-57
2021/12/13 10:12:50;;;;;;;68.13;60.85;;;;;;;;;;5005958;28;20040;-56
2021/12/13 10:15:23;;;;;;;69.45;61.85;;;;;;;;;;5003988;28;20104;-61
2021/12/13 10:17:49;;;;;;;63.00;56.05;;;;;;;;;;5003864;28;20140;-58
2021/12/13 10:20:25;;;;;;;73.30;63.72;;;;;;;;;;5005005;28;20888;-56
2021/12/13 10:22:50;;;;;;;62.53;55.92;;;;;;;;;;4987710;28;20109;-56
2021/12/13 10:25:17;;;;;;;72.40;63.37;;;;;;;;;;4987024;28;20130;-57
2021/12/13 10:27:43;;;;;;;82.10;68.25;;;;;;;;;;4985984;28;20363;-57
2021/12/13 10:30:10;;;;;;;87.05;72.20;;;;;;;;;;4988625;28;20614;-54
2021/12/13 10:32:36;;;;;;;80.13;68.47;;;;;;;;;;4985088;28;20037;-57
2021/12/13 10:35:06;;;;;;;79.10;67.45;;;;;;;;;;4992432;28;20034;-54
2021/12/13 10:37:32;;;;;;;86.95;71.40;;;;;;;;;;4986723;28;20112;-60
2021/12/13 10:39:59;;;;;;;91.03;74.05;;;;;;;;;;4984626;28;20037;-56
2021/12/13 10:42:26;;;;;;;87.65;71.05;;;;;;;;;;4986034;28;20500;-52
2021/12/13 10:44:51;;;;;;;84.10;70.78;;;;;;;;;;4986717;28;20034;-59
2021/12/13 10:47:24;;;;;;;101.97;79.82;;;;;;;;;;4991284;28;20045;-56
2021/12/13 10:49:50;;;;;;;105.28;81.30;;;;;;;;;;4984746;28;20030;-57
2021/12/13 10:52:26;;;;;;;88.68;72.05;;;;;;;;;;4991479;28;20045;-55
2021/12/13 10:54:52;;;;;;;105.78;82.28;;;;;;;;;;4983744;28;20069;-59
2021/12/13 10:57:49;;;;;;;96.20;76.50;;;;;;;;;;4985344;28;20420;-52
2021/12/13 11:00:17;;;;;;;104.82;81.25;;;;;;;;;;4996535;28;20104;-56
2021/12/13 11:02:42;;;;;;;110.80;83.55;;;;;;;;;;4999971;28;20034;-57
2021/12/13 11:05:09;;;;;;;104.03;80.27;;;;;;;;;;5003965;28;20043;-52
2021/12/13 11:07:34;;;;;;;103.45;79.60;;;;;;;;;;5004154;28;20025;-56
2021/12/13 11:10:00;;;;;;;112.80;84.17;;;;;;;;;;5004359;28;20484;-56
2021/12/13 11:12:30;;;;;;;112.45;83.88;;;;;;;;;;5002959;28;20224;-53
2021/12/13 11:14:56;;;;;;;125.72;90.97;;;;;;;;;;5004224;28;20130;-58
2021/12/13 11:17:22;;;;;;;125.70;89.50;;;;;;;;;;5002559;28;20871;-58
2021/12/13 11:19:48;;;;;;;243.25;137.93;;;;;;;;;;5003995;28;20032;-57
2021/12/13 11:22:15;;;;;;;238.38;134.13;;;;;;;;;;5004151;28;20100;-54
2021/12/13 11:24:41;;;;;;;172.65;109.22;;;;;;;;;;5003871;28;20077;-53
2021/12/13 11:27:08;;;;;;;137.82;95.22;;;;;;;;;;4998915;28;20513;-54
2021/12/13 11:29:34;;;;;;;92.63;74.97;;;;;;;;;;5003968;28;20124;-58
2021/12/13 11:32:05;;;;;;;105.88;80.78;;;;;;;;;;5003685;28;20181;-53
2021/12/13 11:34:49;;;;;;;110.40;83.65;;;;;;;;;;5003875;28;20665;-55
2021/12/13 11:37:29;;;;;;;103.60;80.32;;;;;;;;;;5003472;28;20042;-53
2021/12/13 11:40:05;;;;;;;102.35;80.72;;;;;;;;;;5003609;28;20053;-56
2021/12/13 11:42:39;;;;;;;201.18;120.13;;;;;;;;;;5003952;28;20046;-57
2021/12/13 11:45:19;;;;;;;159.73;104.32;;;;;;;;;;5006971;28;20022;-57
2021/12/13 11:48:11;;;;;;;136.18;95.53;;;;;;;;;;5007232;28;20491;-58
2021/12/13 11:50:45;;;;;;;133.23;94.97;;;;;;;;;;4987974;28;20042;-56
2021/12/13 11:53:25;;;;;;;123.28;89.75;;;;;;;;;;5006634;28;20025;-52
2021/12/13 11:55:56;;;;;;;118.82;86.82;;;;;;;;;;5006904;28;20033;-57
2021/12/13 11:58:40;;;;;;;93.35;75.50;;;;;;;;;;5006919;28;20038;-57
2021/12/13 12:01:17;;;;;;;97.40;77.00;;;;;;;;;;5006464;28;20467;-53
2021/12/13 12:04:02;;;;;;;100.25;78.72;;;;;;;;;;5005832;28;20057;-54
2021/12/13 12:06:33;;;;;;;105.03;80.85;;;;;;;;;;5006546;28;20040;-55
2021/12/13 12:09:04;;;;;;;104.90;81.28;;;;;;;;;;5005143;28;20022;-59
2021/12/13 12:11:35;;;;;;;102.75;80.65;;;;;;;;;;5006569;28;20034;-56
2021/12/13 12:14:09;;;;;;;96.18;77.40;;;;;;;;;;5003476;28;20025;-53
2021/12/13 12:16:36;;;;;;;105.22;80.97;;;;;;;;;;4988431;28;20048;-60
2021/12/13 12:19:01;;;;;;;103.38;80.80;;;;;;;;;;4988318;28;20030;-57
2021/12/13 12:21:33;;;;;;;118.37;87.93;;;;;;;;;;4990196;28;20488;-59
2021/12/13 12:23:59;;;;;;;106.25;82.13;;;;;;;;;;4987941;28;20277;-59
2021/12/13 12:26:25;;;;;;;106.93;83.57;;;;;;;;;;4988258;28;20103;-57
2021/12/13 12:28:50;;;;;;;95.90;77.38;;;;;;;;;;4987906;28;20048;-57
2021/12/13 12:31:16;;;;;;;104.73;81.80;;;;;;;;;;4987642;28;20512;-59
2021/12/13 12:33:41;;;;;;;104.30;81.32;;;;;;;;;;4989404;28;20285;-55
2021/12/13 12:36:08;;;;;;;101.93;80.32;;;;;;;;;;4990630;28;20023;-58
2021/12/13 12:38:33;;;;;;;111.68;85.05;;;;;;;;;;4987753;28;20041;-58
2021/12/13 12:41:11;;;;;;;106.88;83.15;;;;;;;;;;4987698;28;20390;-58
2021/12/13 12:43:40;;;;;;;115.93;87.28;;;;;;;;;;4989611;28;20037;-58
2021/12/13 12:46:08;;;;;;;92.60;75.68;;;;;;;;;;4994410;28;20148;-54
2021/12/13 12:48:36;;;;;;;83.38;71.30;;;;;;;;;;5006034;28;20022;-58
2021/12/13 12:51:01;;;;;;;75.00;66.07;;;;;;;;;;5006024;28;20021;-58
2021/12/13 12:53:45;;;;;;;93.57;75.60;;;;;;;;;;4999075;28;20461;-56
2021/12/13 12:56:12;;;;;;;89.68;74.03;;;;;;;;;;5005282;28;20091;-59
2021/12/13 12:58:39;;;;;;;102.90;80.07;;;;;;;;;;5005978;28;20041;-58
2021/12/13 13:01:06;;;;;;;112.97;85.88;;;;;;;;;;5004539;28;20060;-54
2021/12/13 13:03:32;;;;;;;122.00;89.07;;;;;;;;;;5001903;28;20038;-53
2021/12/13 13:06:02;;;;;;;98.38;79.18;;;;;;;;;;4989220;28;20080;-59
2021/12/13 13:08:31;;;;;;;113.60;86.05;;;;;;;;;;4988652;28;20061;-55
2021/12/13 13:13:40;;;;;;;112.60;85.18;;;;;;;;;;4993089;28;20115;-59
2021/12/13 13:16:05;;;;;;;117.25;86.45;;;;;;;;;;4987251;28;20473;-55
2021/12/13 13:18:30;;;;;;;130.27;93.55;;;;;;;;;;4987015;28;20493;-56
2021/12/13 13:20:57;;;;;;;101.13;79.73;;;;;;;;;;4987252;28;20118;-55
2021/12/13 13:23:23;;;;;;;107.05;82.07;;;;;;;;;;4987494;28;20022;-54
2021/12/13 13:25:58;;;;;;;106.32;83.03;;;;;;;;;;4985849;28;20038;-57
2021/12/13 13:28:30;;;;;;;107.40;83.05;;;;;;;;;;4985612;28;20455;-58
2021/12/13 13:30:55;;;;;;;101.00;80.20;;;;;;;;;;4985682;28;20061;-57
2021/12/13 13:33:34;;;;;;;83.57;70.60;;;;;;;;;;4986184;28;20015;-57
2021/12/13 13:35:59;;;;;;;94.65;76.05;;;;;;;;;;4985708;28;20535;-54
2021/12/13 13:38:24;;;;;;;90.75;74.63;;;;;;;;;;4985515;28;20030;-57
2021/12/13 13:40:49;;;;;;;98.03;78.17;;;;;;;;;;4985508;28;20033;-57
2021/12/13 13:43:15;;;;;;;76.27;66.80;;;;;;;;;;4985491;28;20265;-57
2021/12/13 13:45:42;;;;;;;89.82;74.28;;;;;;;;;;4985757;28;20687;-57
2021/12/13 13:48:15;;;;;;;87.47;72.13;;;;;;;;;;4988938;28;20030;-56
2021/12/13 13:50:44;;;;;;;79.57;69.10;;;;;;;;;;4987686;28;20053;-54
2021/12/13 13:53:15;;;;;;;85.38;71.80;;;;;;;;;;4984778;28;20029;-57
2021/12/13 13:55:48;;;;;;;85.30;71.78;;;;;;;;;;4986646;28;20049;-55
2021/12/13 13:58:19;;;;;;;80.93;69.90;;;;;;;;;;4984783;28;20038;-57
2021/12/13 14:00:49;;;;;;;86.78;72.03;;;;;;;;;;4984463;28;20058;-57
2021/12/13 14:03:14;;;;;;;;;;;;;;;;;;4983471;28;20113;-53
2021/12/13 14:05:40;;;;;;;88.40;74.28;;;;;;;;;;4988384;28;19996;-57
2021/12/13 14:08:16;;;;;;;87.30;72.97;;;;;;;;;;4984470;28;20026;-56
2021/12/13 14:10:41;;;;;;;86.07;72.68;;;;;;;;;;4984739;28;20734;-56
2021/12/13 14:13:07;;;;;;;86.27;72.83;;;;;;;;;;4982035;28;20045;-56
2021/12/13 14:15:33;;;;;;;107.28;78.80;;;;;;;;;;4977427;28;20342;-53
2021/12/13 14:18:31;;;;;;;81.75;70.03;;;;;;;;;;4977170;28;20077;-57
2021/12/13 14:20:57;;;;;;;90.63;74.88;;;;;;;;;;4981256;28;20030;-55
2021/12/13 14:23:27;;;;;;;91.78;74.97;;;;;;;;;;4986046;28;20567;-55
2021/12/13 14:26:01;;;;;;;95.22;76.82;;;;;;;;;;4989551;28;20056;-56
2021/12/13 14:28:26;;;;;;;85.55;71.65;;;;;;;;;;4986561;28;20538;-57
2021/12/13 14:30:52;;;;;;;92.23;75.57;;;;;;;;;;4986536;28;20027;-59
2021/12/13 14:33:23;;;;;;;91.05;75.13;;;;;;;;;;4986341;28;20030;-55
2021/12/13 14:36:02;;;;;;;96.95;78.38;;;;;;;;;;4985043;28;20023;-58
2021/12/13 14:38:28;;;;;;;100.72;80.40;;;;;;;;;;4988054;28;20037;-56
2021/12/13 14:40:53;;;;;;;86.53;72.63;;;;;;;;;;4985331;28;20081;-55